Time;durP1;ratioP1;P1;durP2;ratioP2;P2;SDS_P1;SDS_P2;PMS_P1;PMS_P2;Temp;Humidity;BMP_temperature;BMP_pressure;BME280_temperature;BME280_humidity;BME280_pressure;Samples;Min_cycle;Max_cycle;Signal;HPM_P1;HPM_P2
2022/12/06 00:01:58;;;;;;;4.07;1.95;;;;;;;7.81;76.93;101873.72;4998642;28;20038;-83
2022/12/06 00:04:27;;;;;;;5.22;1.92;;;;;;;7.61;77.00;101836.91;4974117;28;20053;-83
2022/12/06 00:06:53;;;;;;;2.45;1.55;;;;;;;7.74;76.86;101856.41;4992340;28;20092;-84
2022/12/06 00:09:32;;;;;;;4.07;2.00;;;;;;;7.75;77.51;101868.84;4971080;28;20058;-85
2022/12/06 00:12:02;;;;;;;4.82;1.95;;;;;;;7.72;77.66;101866.38;4999920;28;20149;-83
2022/12/06 00:14:28;;;;;;;4.03;1.80;;;;;;;7.83;77.46;101876.31;4993327;28;20150;-83
2022/12/06 00:16:57;;;;;;;8.88;2.53;;;;;;;7.57;77.49;101832.72;4979928;28;20073;-85
2022/12/06 00:19:23;;;;;;;6.82;2.00;;;;;;;7.63;77.64;101844.78;4956272;28;20046;-83
2022/12/06 00:21:48;;;;;;;8.30;2.30;;;;;;;7.64;78.00;101851.88;5000811;28;20120;-84
2022/12/06 00:24:18;;;;;;;3.65;1.90;;;;;;;7.71;77.99;101866.50;4973299;28;20046;-84
2022/12/06 00:26:45;;;;;;;5.32;1.92;;;;;;;7.64;77.83;101838.50;4995731;28;20046;-83
2022/12/06 00:29:11;;;;;;;;;;;;;;;7.76;77.82;101859.00;4962671;28;20307;-83
2022/12/06 00:31:36;;;;;;;3.95;1.83;;;;;;;7.72;77.96;101854.81;4997924;28;20382;-82
2022/12/06 00:34:03;;;;;;;4.38;1.63;;;;;;;7.58;77.80;101829.91;4977111;28;20128;-85
2022/12/06 00:36:30;;;;;;;6.50;1.60;;;;;;;7.48;78.04;101809.31;4983500;28;20034;-86
2022/12/06 00:39:22;;;;;;;5.60;1.73;;;;;;;7.73;78.05;101853.88;4995389;28;20041;-83
2022/12/06 00:41:47;;;;;;;5.55;1.75;;;;;;;7.56;78.14;101821.19;4993245;28;20038;-84
2022/12/06 00:44:13;;;;;;;5.90;1.90;;;;;;;7.73;77.97;101843.16;4991380;28;20411;-83
2022/12/06 00:46:39;;;;;;;5.70;1.80;;;;;;;7.75;77.77;101841.19;4979550;28;20057;-82
2022/12/06 00:49:06;;;;;;;4.00;1.83;;;;;;;7.50;78.03;101805.56;4988872;28;20502;-84
2022/12/06 00:51:32;;;;;;;7.22;1.90;;;;;;;7.82;77.85;101842.50;4995066;28;20057;-83
2022/12/06 00:53:58;;;;;;;3.03;1.60;;;;;;;7.64;77.62;101798.34;4943329;28;20064;-84
2022/12/06 00:56:23;;;;;;;5.57;1.75;;;;;;;7.73;77.59;101814.56;4997035;28;20511;-84
2022/12/06 00:58:49;;;;;;;4.20;1.90;;;;;;;7.71;77.53;101800.44;4975643;28;20057;-85
2022/12/06 01:01:15;;;;;;;4.93;1.83;;;;;;;7.89;77.29;101832.16;4994253;28;20042;-84
2022/12/06 01:03:41;;;;;;;;;;;;;;;7.78;77.76;101830.28;4976470;28;20042;-83
2022/12/06 01:06:10;;;;;;;4.70;1.98;;;;;;;7.62;77.99;101811.81;4991355;28;19988;-84
2022/12/06 01:08:36;;;;;;;4.00;1.90;;;;;;;7.75;77.98;101831.38;4964809;28;20050;-83
2022/12/06 01:11:02;;;;;;;4.45;1.83;;;;;;;7.76;78.03;101827.72;4975664;28;20042;-83
2022/12/06 01:13:29;;;;;;;8.55;2.25;;;;;;;7.68;77.78;101798.00;4975270;28;20039;-84
2022/12/06 01:15:55;;;;;;;4.82;1.65;;;;;;;7.76;77.64;101817.00;4974327;28;20046;-83
2022/12/06 01:18:21;;;;;;;6.32;1.88;;;;;;;7.57;77.76;101789.91;4963856;28;20407;-83
2022/12/06 01:20:46;;;;;;;7.18;2.08;;;;;;;7.68;77.86;101811.38;4975828;28;20110;-84
2022/12/06 01:23:13;;;;;;;8.23;2.00;;;;;;;7.69;78.03;101822.94;4972856;28;20418;-85
2022/12/06 01:25:49;;;;;;;4.93;1.63;;;;;;;7.57;77.96;101800.63;4959814;28;20080;-83
2022/12/06 01:28:15;;;;;;;7.15;1.73;;;;;;;7.72;77.70;101820.88;4991360;28;20043;-83
2022/12/06 01:30:43;;;;;;;4.60;1.77;;;;;;;7.67;77.69;101815.00;4977572;28;20050;-83
2022/12/06 01:33:08;;;;;;;4.60;1.67;;;;;;;7.63;77.82;101810.84;4968440;28;21692;-84
2022/12/06 01:35:41;;;;;;;7.63;1.85;;;;;;;7.60;78.02;101811.94;4968067;28;20065;-83
2022/12/06 01:38:08;;;;;;;4.35;1.80;;;;;;;7.48;78.15;101802.13;4974752;28;20482;-84
2022/12/06 01:40:37;;;;;;;;;;;;;;;7.49;78.38;101800.31;4983873;28;20096;-84
2022/12/06 01:43:03;;;;;;;5.05;2.05;;;;;;;7.51;78.50;101803.72;4987425;28;20032;-86
2022/12/06 01:45:31;;;;;;;3.55;1.70;;;;;;;7.47;78.61;101794.22;5000471;28;20487;-86
2022/12/06 01:47:56;;;;;;;4.20;1.90;;;;;;;7.36;78.17;101769.13;4974756;28;20094;-84
2022/12/06 01:50:25;;;;;;;6.97;1.60;;;;;;;7.47;78.39;101799.56;4976707;28;20517;-85
2022/12/06 01:52:51;;;;;;;4.50;1.88;;;;;;;7.51;78.40;101793.03;4992910;28;20420;-84
2022/12/06 01:55:18;;;;;;;6.53;1.90;;;;;;;7.60;78.07;101787.00;4967892;28;20058;-83
2022/12/06 01:57:44;;;;;;;3.72;1.75;;;;;;;7.39;78.09;101760.84;4975910;28;20049;-86
2022/12/06 02:00:10;;;;;;;4.85;1.80;;;;;;;7.43;78.29;101771.34;4971134;28;20383;-83
2022/12/06 02:02:36;;;;;;;5.80;1.65;;;;;;;7.35;78.07;101764.75;4972007;28;20113;-84
2022/12/06 02:05:02;;;;;;;4.03;1.25;;;;;;;7.51;77.91;101771.63;4989789;28;20110;-83
2022/12/06 02:07:28;;;;;;;3.80;1.65;;;;;;;7.48;78.10;101793.25;4937950;28;20526;-85
2022/12/06 02:09:54;;;;;;;5.90;1.63;;;;;;;7.45;78.05;101774.78;4966865;28;20046;-83
2022/12/06 02:12:19;;;;;;;5.13;1.60;;;;;;;7.39;78.02;101766.19;4953659;28;20134;-83
2022/12/06 02:14:47;;;;;;;3.88;1.52;;;;;;;7.51;78.12;101783.16;4968496;28;20056;-85
2022/12/06 02:17:22;;;;;;;3.67;1.48;;;;;;;7.27;78.08;101731.50;4977839;28;20054;-86
2022/12/06 02:20:06;;;;;;;3.92;1.45;;;;;;;7.51;78.05;101768.94;4976974;28;20133;-81
2022/12/06 02:22:50;;;;;;;5.72;1.70;;;;;;;7.54;77.84;101772.25;4985955;28;20187;-81
2022/12/06 02:25:41;;;;;;;4.72;1.63;;;;;;;7.51;77.88;101775.13;5002185;28;20042;-84
2022/12/06 02:28:09;;;;;;;4.63;1.30;;;;;;;7.53;77.71;101773.22;5005612;28;20030;-83
2022/12/06 02:31:01;;;;;;;3.55;1.50;;;;;;;7.44;77.37;101740.94;5000171;28;20038;-83
2022/12/06 02:33:46;;;;;;;3.67;1.50;;;;;;;7.56;77.04;101758.75;4980360;28;20047;-82
2022/12/06 02:36:40;;;;;;;6.13;1.65;;;;;;;7.56;76.73;101758.75;4980336;28;20066;-81
2022/12/06 02:39:13;;;;;;;2.17;1.10;;;;;;;7.51;77.16;101764.44;4961124;28;20113;-83
2022/12/06 02:41:43;;;;;;;4.97;1.40;;;;;;;7.42;76.59;101737.50;4984514;28;20133;-82
2022/12/06 02:44:12;;;;;;;3.38;1.60;;;;;;;7.40;76.61;101746.53;4973353;28;20067;-85
2022/12/06 02:46:40;;;;;;;5.00;1.60;;;;;;;7.53;76.35;101764.34;4975699;28;20047;-82
2022/12/06 02:49:09;;;;;;;3.30;1.30;;;;;;;7.42;76.38;101749.06;4973591;28;20129;-85
2022/12/06 02:51:37;;;;;;;6.53;1.40;;;;;;;7.51;76.18;101768.94;4980392;28;20475;-85
2022/12/06 02:54:06;;;;;;;5.78;1.80;;;;;;;7.56;76.17;101764.09;4994591;28;20046;-83
2022/12/06 02:56:32;;;;;;;3.13;1.40;;;;;;;7.26;75.97;101717.28;4971655;28;20042;-83
2022/12/06 02:58:58;;;;;;;4.03;1.33;;;;;;;7.52;76.05;101754.63;4975621;28;20588;-84
2022/12/06 03:01:26;;;;;;;3.97;1.38;;;;;;;7.43;75.57;101728.53;4992111;28;20120;-84
2022/12/06 03:04:18;;;;;;;3.95;1.38;;;;;;;7.53;75.76;101750.97;4970156;28;20041;-83
2022/12/06 03:07:02;;;;;;;4.78;1.52;;;;;;;7.61;75.71;101759.28;4999395;28;20042;-83
2022/12/06 03:09:51;;;;;;;3.22;1.23;;;;;;;7.55;75.62;101751.69;4981441;28;20601;-83
2022/12/06 03:12:19;;;;;;;6.03;1.60;;;;;;;7.38;76.02;101743.09;4953108;28;20056;-83
2022/12/06 03:15:01;;;;;;;4.30;1.52;;;;;;;7.38;75.83;101729.72;4993650;28;20499;-82
2022/12/06 03:17:37;;;;;;;4.38;1.30;;;;;;;7.29;75.63;101709.00;4976414;28;20144;-82
2022/12/06 03:20:04;;;;;;;;;;;;;;;7.55;75.83;101754.38;4977806;28;20418;-82
2022/12/06 03:22:32;;;;;;;4.00;1.33;;;;;;;7.32;75.67;101727.50;4978080;28;19933;-85
2022/12/06 03:24:59;;;;;;;3.97;1.30;;;;;;;7.40;75.67;101735.81;4976125;28;20021;-84
2022/12/06 03:27:25;;;;;;;;;;;;;;;7.54;75.51;101752.69;4997845;28;20053;-81
2022/12/06 03:29:54;;;;;;;2.10;1.10;;;;;;;7.28;75.56;101725.16;4964374;28;19918;-84
2022/12/06 03:32:22;;;;;;;3.85;1.50;;;;;;;7.19;75.53;101700.81;4976106;28;20039;-85
2022/12/06 03:34:49;;;;;;;3.97;1.20;;;;;;;7.36;75.49;101736.16;4965448;28;20062;-82
2022/12/06 03:37:20;;;;;;;3.47;1.50;;;;;;;7.45;75.54;101758.72;4976864;28;20034;-85
2022/12/06 03:40:06;;;;;;;2.28;1.23;;;;;;;7.26;75.53;101733.31;4965328;28;20511;-82
2022/12/06 03:42:32;;;;;;;2.80;1.40;;;;;;;7.35;75.40;101726.41;4965794;28;20057;-83
2022/12/06 03:44:58;;;;;;;3.53;1.17;;;;;;;7.42;75.17;101743.72;4978194;28;20471;-85
2022/12/06 03:47:37;;;;;;;4.25;1.42;;;;;;;7.36;74.55;101712.94;4945004;28;20057;-84
2022/12/06 03:50:12;;;;;;;3.85;1.60;;;;;;;7.57;74.58;101747.94;4972229;28;20047;-84
2022/12/06 03:52:38;;;;;;;3.70;1.60;;;;;;;7.52;74.49;101735.88;4962379;28;20056;-84
2022/12/06 03:55:04;;;;;;;2.92;1.30;;;;;;;7.49;74.35;101736.09;4974494;28;20363;-84
2022/12/06 03:57:29;;;;;;;4.97;1.45;;;;;;;7.40;74.50;101724.28;4974267;28;20052;-85
2022/12/06 03:59:55;;;;;;;5.57;1.88;;;;;;;7.41;74.50;101728.63;4976721;28;20050;-82
2022/12/06 04:02:22;;;;;;;4.10;1.50;;;;;;;7.62;74.45;101739.56;4975263;28;20038;-84
2022/12/06 04:04:48;;;;;;;3.80;1.48;;;;;;;7.51;74.15;101716.28;4980721;28;20064;-84
2022/12/06 04:07:20;;;;;;;4.05;1.60;;;;;;;7.52;74.17;101717.16;4987297;28;20108;-85
2022/12/06 04:09:55;;;;;;;4.30;1.70;;;;;;;7.75;74.36;101745.72;4960612;28;20389;-86
2022/12/06 04:15:20;;;;;;;8.38;1.70;;;;;;;7.72;74.67;101740.56;4951614;28;20042;-84
2022/12/06 04:23:02;;;;;;;4.63;1.90;;;;;;;7.58;74.80;101717.50;4972189;28;20100;-82
2022/12/06 04:23:28;;;;;;;8.73;2.60;;;;;;;7.52;75.24;101728.69;4964468;28;20304;-85
2022/12/06 04:25:54;;;;;;;6.68;2.10;;;;;;;7.63;75.55;101745.75;4989582;28;20038;-83
2022/12/06 04:39:20;;;;;;;4.50;2.30;;;;;;;7.70;75.32;101725.59;4957638;28;20207;-85
2022/12/06 04:44:31;;;;;;;5.55;2.80;;;;;;;7.73;75.57;101734.25;4984678;28;20152;-83
2022/12/06 04:46:58;;;;;;;4.32;2.30;;;;;;;7.72;75.78;101745.91;4956934;28;20030;-83
2022/12/06 04:49:25;;;;;;;8.88;2.35;;;;;;;7.64;75.66;101715.38;4985794;28;20046;-83
2022/12/06 04:51:52;;;;;;;7.75;2.45;;;;;;;7.95;75.43;101746.00;4972381;28;20042;-84
2022/12/06 04:54:19;;;;;;;5.32;2.65;;;;;;;7.92;75.12;101735.53;4972911;28;20128;-86
2022/12/06 04:56:45;;;;;;;6.90;2.67;;;;;;;7.91;74.78;101729.31;4963201;28;20126;-83
2022/12/06 04:59:11;;;;;;;9.05;2.72;;;;;;;7.91;75.12;101742.69;4959972;28;20061;-84
2022/12/06 05:01:38;;;;;;;10.00;2.50;;;;;;;8.03;75.21;101755.16;4963858;28;20042;-87
2022/12/06 05:04:03;;;;;;;7.00;2.90;;;;;;;7.94;75.01;101734.44;4961609;28;20133;-82
2022/12/06 05:06:29;;;;;;;8.60;2.78;;;;;;;8.03;74.92;101744.44;4963566;28;20355;-84
2022/12/06 05:08:55;;;;;;;7.22;2.90;;;;;;;8.02;75.21;101748.09;4986470;28;20138;-87
2022/12/06 05:11:20;;;;;;;7.00;3.10;;;;;;;8.07;75.09;101750.41;4969935;28;20049;-86
2022/12/06 05:13:47;;;;;;;7.03;3.00;;;;;;;8.09;74.66;101740.44;4954184;28;20428;-85
2022/12/06 05:16:13;;;;;;;6.90;3.20;;;;;;;7.96;75.06;101735.19;4951862;28;20125;-83
2022/12/06 05:18:39;;;;;;;5.80;3.08;;;;;;;8.03;75.14;101738.25;4971849;28;20120;-82
2022/12/06 05:21:14;;;;;;;9.18;2.97;;;;;;;7.97;75.08;101730.69;4997497;28;20046;-83
2022/12/06 05:23:40;;;;;;;9.10;3.20;;;;;;;7.87;75.21;101706.44;4981749;28;20122;-85
2022/12/06 05:26:09;;;;;;;9.63;3.28;;;;;;;7.95;74.95;101720.06;4986191;28;20054;-86
2022/12/06 05:28:35;;;;;;;7.75;2.97;;;;;;;7.94;75.07;101712.19;4965447;28;20047;-84
2022/12/06 05:31:02;;;;;;;6.38;3.00;;;;;;;8.03;75.13;101743.59;4960687;28;20046;-86
2022/12/06 05:33:28;;;;;;;8.40;3.20;;;;;;;7.93;75.00;101721.16;4963918;28;20038;-84
2022/12/06 05:35:53;;;;;;;11.18;4.10;;;;;;;8.03;75.25;101738.25;4963669;28;20066;-85
2022/12/06 05:38:19;;;;;;;6.88;3.78;;;;;;;8.11;75.35;101734.97;4979424;28;20153;-87
2022/12/06 05:40:45;;;;;;;12.00;4.47;;;;;;;8.00;75.04;101706.31;4964535;28;20525;-88
2022/12/06 05:43:12;;;;;;;9.35;4.22;;;;;;;7.93;74.91;101692.56;4966439;28;20047;-91
2022/12/06 05:45:39;;;;;;;8.55;3.50;;;;;;;8.17;74.33;101713.03;4973600;28;20065;-87
2022/12/06 05:48:04;;;;;;;;;;;;;;;8.38;74.39;101748.91;4985439;28;20039;-89
2022/12/06 05:50:31;;;;;;;8.10;3.40;;;;;;;8.42;74.16;101744.19;4965864;28;19936;-88
2022/12/06 05:52:57;;;;;;;;;;;;;;;8.44;73.93;101739.56;4972854;28;20098;-88
2022/12/06 05:55:24;;;;;;;7.55;3.42;;;;;;;8.22;74.13;101710.88;4960397;28;19914;-89
2022/12/06 05:57:50;;;;;;;9.25;3.65;;;;;;;8.21;74.19;101722.56;4938097;28;20050;-85
2022/12/06 06:00:17;;;;;;;9.48;3.70;;;;;;;8.34;73.83;101730.50;4959111;28;20065;-86
2022/12/06 06:02:43;;;;;;;11.63;4.65;;;;;;;8.42;74.21;101744.19;4961982;28;20157;-87
2022/12/06 06:05:10;;;;;;;11.82;3.85;;;;;;;8.32;74.10;101738.66;4954041;28;20133;-87
2022/12/06 06:07:41;;;;;;;8.70;3.50;;;;;;;8.21;74.04;101735.94;4987695;28;20042;-86
2022/12/06 06:10:08;;;;;;;8.40;3.20;;;;;;;8.31;73.76;101730.72;4981600;28;20101;-84
2022/12/06 06:12:34;;;;;;;7.95;3.47;;;;;;;8.17;73.92;101724.63;4968024;28;20046;-86
2022/12/06 06:15:00;;;;;;;7.25;3.33;;;;;;;8.24;74.17;101731.22;4968466;28;20049;-85
2022/12/06 06:17:25;;;;;;;7.40;3.80;;;;;;;8.38;74.01;101754.25;4980895;28;20038;-85
2022/12/06 06:19:51;;;;;;;10.27;3.77;;;;;;;8.42;73.93;101749.53;4965178;28;20037;-83
2022/12/06 06:22:17;;;;;;;14.68;3.92;;;;;;;8.37;73.85;101746.34;4971589;28;20280;-84
2022/12/06 06:24:43;;;;;;;9.38;3.85;;;;;;;8.41;73.86;101748.69;4988294;28;20113;-86
2022/12/06 06:27:09;;;;;;;10.73;3.40;;;;;;;8.35;74.53;101743.75;4972502;28;20042;-83
2022/12/06 06:29:34;;;;;;;12.32;3.55;;;;;;;8.47;74.29;101747.34;4940859;28;20133;-83
2022/12/06 06:32:00;;;;;;;7.55;3.75;;;;;;;8.53;74.40;101756.75;4990944;28;20447;-84
2022/12/06 06:34:26;;;;;;;10.35;4.43;;;;;;;8.46;74.00;101740.28;4988014;28;20037;-82
2022/12/06 06:36:52;;;;;;;18.23;4.40;;;;;;;8.58;73.46;101733.09;4980834;28;20066;-80
2022/12/06 06:39:17;;;;;;;14.65;4.10;;;;;;;8.44;73.54;101728.84;4971913;28;20144;-83
2022/12/06 06:41:46;;;;;;;19.58;3.90;;;;;;;8.62;73.35;101745.28;4959473;28;20049;-83
2022/12/06 06:44:12;;;;;;;8.60;3.83;;;;;;;8.54;73.82;101745.88;4975881;28;20125;-82
2022/12/06 06:46:38;;;;;;;6.93;3.60;;;;;;;8.60;73.45;101732.00;4958379;28;20118;-85
2022/12/06 06:49:04;;;;;;;9.38;3.40;;;;;;;8.57;73.20;101721.53;4981636;28;20038;-84
2022/12/06 06:51:31;;;;;;;12.57;3.65;;;;;;;8.77;73.11;101748.56;4982286;28;20134;-82
2022/12/06 06:53:57;;;;;;;7.55;4.03;;;;;;;8.60;73.27;101721.28;4994431;28;20031;-84
2022/12/06 06:56:22;;;;;;;9.77;4.00;;;;;;;8.84;72.54;101745.25;4956669;28;20042;-83
2022/12/06 06:58:48;;;;;;;10.80;4.35;;;;;;;8.64;73.82;101706.66;4956456;28;20137;-83
2022/12/06 07:01:18;;;;;;;13.70;5.10;;;;;;;8.82;73.31;101728.44;4945581;28;20031;-84
2022/12/06 07:03:44;;;;;;;9.57;4.40;;;;;;;9.02;72.45;101752.81;4972718;28;20038;-83
2022/12/06 07:06:10;;;;;;;11.48;4.55;;;;;;;8.98;72.43;101751.34;4955527;28;20049;-83
2022/12/06 07:08:37;;;;;;;12.20;4.50;;;;;;;8.99;72.53;101747.69;4973412;28;20462;-84
2022/12/06 07:11:02;;;;;;;10.52;4.40;;;;;;;8.84;72.62;101729.19;4952762;28;20039;-83
2022/12/06 07:13:28;;;;;;;12.68;5.35;;;;;;;8.93;72.93;101729.44;4942113;28;20077;-89
2022/12/06 07:15:54;;;;;;;11.25;4.97;;;;;;;8.90;72.60;101713.56;4931783;28;20049;-84
2022/12/06 07:18:20;;;;;;;19.65;5.45;;;;;;;9.16;72.84;101743.66;4962320;28;20063;-84
2022/12/06 07:20:45;;;;;;;12.82;4.53;;;;;;;9.06;71.73;101728.31;4964783;28;20115;-84
2022/12/06 07:23:12;;;;;;;14.07;5.20;;;;;;;9.12;72.03;101732.31;4980613;28;20069;-87
2022/12/06 07:25:37;;;;;;;;;;;;;;;9.14;71.92;101745.59;4969080;28;20122;-82
2022/12/06 07:28:03;;;;;;;10.20;4.63;;;;;;;9.11;72.02;101743.16;4955781;28;20405;-83
2022/12/06 07:30:29;;;;;;;11.07;4.85;;;;;;;8.94;72.42;101723.91;4950925;29;20046;-85
2022/12/06 07:32:54;;;;;;;13.38;4.78;;;;;;;8.98;72.15;101706.59;4952517;28;20113;-81
2022/12/06 07:35:20;;;;;;;14.07;4.70;;;;;;;9.02;71.69;101724.16;4953007;28;20066;-85
2022/12/06 07:37:47;;;;;;;11.95;5.07;;;;;;;8.90;72.21;101703.72;4957242;28;20050;-84
2022/12/06 07:40:15;;;;;;;10.65;4.45;;;;;;;9.15;72.06;101739.25;4958255;28;20035;-83
2022/12/06 07:45:26;;;;;;;11.07;4.32;;;;;;;9.14;71.28;101726.81;4948989;28;20124;-84
2022/12/06 07:47:52;;;;;;;10.82;4.30;;;;;;;9.22;71.39;101719.84;4963016;28;20031;-84
2022/12/06 07:50:19;;;;;;;14.07;4.60;;;;;;;9.17;70.92;101699.72;4972597;28;20440;-84
2022/12/06 07:52:47;;;;;;;17.98;5.70;;;;;;;9.28;70.90;101705.06;4978938;28;20039;-82
2022/12/06 07:55:12;;;;;;;9.20;3.42;;;;;;;9.48;70.25;101733.81;4978286;28;20042;-82
2022/12/06 07:57:38;;;;;;;11.32;4.32;;;;;;;9.47;70.26;101726.72;4984596;28;20539;-84
2022/12/06 08:00:06;;;;;;;10.93;4.57;;;;;;;9.49;70.17;101740.03;4997658;28;20141;-85
2022/12/06 08:02:32;;;;;;;14.60;4.70;;;;;;;9.44;70.24;101732.34;4976171;28;20463;-84
2022/12/06 08:04:57;;;;;;;6.47;3.50;;;;;;;9.42;69.84;101712.81;4971509;28;20049;-84
2022/12/06 08:07:24;;;;;;;9.65;3.50;;;;;;;9.43;69.88;101714.53;4993695;28;20038;-86
2022/12/06 08:09:49;;;;;;;11.05;3.90;;;;;;;9.47;69.98;101710.59;4985050;28;20041;-85
2022/12/06 08:12:15;;;;;;;9.07;3.97;;;;;;;9.65;69.31;101712.75;4970882;28;20042;-85
2022/12/06 08:14:41;;;;;;;5.63;3.15;;;;;;;9.76;68.73;101726.09;4978741;28;20035;-85
2022/12/06 08:17:07;;;;;;;7.15;3.03;;;;;;;9.54;68.66;101688.63;4979412;28;20049;-83
2022/12/06 08:19:33;;;;;;;11.55;3.72;;;;;;;9.65;68.91;101691.25;4964611;28;20034;-84
2022/12/06 08:21:59;;;;;;;6.13;2.80;;;;;;;9.82;68.25;101708.63;4969104;28;20144;-86
2022/12/06 08:24:25;;;;;;;13.82;3.05;;;;;;;9.73;68.05;101686.09;4964898;28;20479;-85
2022/12/06 08:26:51;;;;;;;5.60;2.38;;;;;;;9.77;67.91;101675.94;4985492;28;20090;-87
2022/12/06 08:29:17;;;;;;;;;;;;;;;10.03;67.76;101706.78;4991933;28;20088;-87
2022/12/06 08:31:44;;;;;;;7.30;2.40;;;;;;;9.71;68.10;101675.47;4987259;28;19936;-85
2022/12/06 08:34:11;;;;;;;9.02;2.40;;;;;;;9.85;67.91;101708.34;4971686;28;20049;-83
2022/12/06 08:36:40;;;;;;;11.00;2.63;;;;;;;9.66;68.24;101660.72;4961498;28;20467;-84
2022/12/06 08:39:06;;;;;;;9.25;2.70;;;;;;;9.76;68.94;101667.00;5002120;28;20033;-85
2022/12/06 08:41:58;;;;;;;6.50;2.55;;;;;;;9.77;68.62;101690.22;4958563;28;20042;-85
2022/12/06 08:44:30;;;;;;;4.72;2.30;;;;;;;9.52;68.07;101624.31;4983558;28;20042;-85
2022/12/06 08:46:57;;;;;;;5.85;2.17;;;;;;;9.62;69.07;101664.66;4974621;28;20038;-86
2022/12/06 08:49:24;;;;;;;7.85;2.55;;;;;;;9.69;68.79;101647.91;4976809;28;20454;-83
2022/12/06 08:51:58;;;;;;;7.03;2.27;;;;;;;9.76;67.97;101631.25;4973946;28;20049;-84
2022/12/06 08:54:24;;;;;;;5.95;2.47;;;;;;;9.93;67.36;101636.88;4953637;28;20301;-84
2022/12/06 08:56:50;;;;;;;6.97;2.58;;;;;;;9.99;67.63;101654.28;4969111;28;20038;-84
2022/12/06 08:59:17;;;;;;;6.40;2.50;;;;;;;10.13;67.35;101653.94;4989850;28;20125;-83
2022/12/06 09:01:43;;;;;;;;;;;;;;;10.14;67.02;101665.56;4981352;28;20053;-82
2022/12/06 09:04:09;;;;;;;4.38;1.92;;;;;;;9.98;67.63;101659.81;4985459;28;19921;-82
2022/12/06 09:09:46;;;;;;;3.22;1.70;;;;;;;9.87;68.46;101663.41;4989145;28;20141;-84
2022/12/06 09:12:12;;;;;;;;;;;;;;;9.91;68.31;101649.59;4991099;28;20052;-86
2022/12/06 09:14:37;;;;;;;7.82;2.03;;;;;;;9.70;68.46;101630.81;4995393;28;19965;-86
2022/12/06 09:17:06;;;;;;;9.60;2.22;;;;;;;9.66;69.01;101648.16;4994304;28;20034;-87
2022/12/06 09:19:33;;;;;;;6.00;2.38;;;;;;;9.62;68.65;101616.31;4969762;28;20077;-89
2022/12/06 09:22:00;;;;;;;10.60;2.42;;;;;;;9.49;68.63;101606.66;4968442;28;20057;-86
2022/12/06 09:24:26;;;;;;;4.95;2.55;;;;;;;9.91;68.49;101654.97;4970897;28;20042;-86
2022/12/06 09:26:52;;;;;;;;;;;;;;;10.01;68.33;101643.41;4956457;28;20471;-85
2022/12/06 09:29:18;;;;;;;7.25;2.60;;;;;;;9.79;68.51;101613.06;4982908;28;19922;-86
2022/12/06 09:31:43;;;;;;;6.57;1.88;;;;;;;9.87;67.91;101607.00;4940911;28;20031;-84
2022/12/06 09:34:09;;;;;;;7.03;2.40;;;;;;;10.09;67.93;101627.47;4967626;28;20043;-87
2022/12/06 09:36:45;;;;;;;;;;;;;;;10.05;67.72;101624.22;4964389;28;20076;-85
2022/12/06 09:39:22;;;;;;;6.32;3.38;;;;;;;9.99;67.71;101599.72;4961656;28;19910;-86
2022/12/06 09:42:10;;;;;;;9.00;2.85;;;;;;;10.04;68.30;101618.97;4960459;28;20137;-85
2022/12/06 09:44:48;;;;;;;7.10;2.40;;;;;;;9.97;68.71;101613.28;4963290;28;20065;-89
2022/12/06 09:47:31;;;;;;;5.10;2.47;;;;;;;10.00;68.50;101612.19;4975380;28;20055;-84
2022/12/06 09:50:27;;;;;;;5.30;2.40;;;;;;;10.00;68.62;101604.97;4975067;28;20031;-85
2022/12/06 09:53:05;;;;;;;6.78;2.28;;;;;;;9.94;68.67;101606.34;4979119;28;20034;-85
2022/12/06 09:55:46;;;;;;;5.57;2.20;;;;;;;9.96;68.67;101586.56;4973793;28;20089;-88
2022/12/06 09:58:36;;;;;;;5.35;2.45;;;;;;;10.09;67.77;101597.91;4962218;28;20054;-84
2022/12/06 10:01:11;;;;;;;5.72;1.70;;;;;;;10.01;68.02;101605.81;4982364;28;20490;-86
2022/12/06 10:04:11;;;;;;;14.73;2.50;;;;;;;9.90;68.60;101593.31;4963726;28;21589;-86
2022/12/06 10:07:02;;;;;;;4.88;1.90;;;;;;;9.90;68.98;101599.56;4960733;28;20054;-88
2022/12/06 10:09:53;;;;;;;6.10;2.30;;;;;;;9.89;69.01;101592.47;4965332;28;20507;-84
2022/12/06 10:12:53;;;;;;;4.03;2.00;;;;;;;9.88;69.12;101588.09;4968828;28;20035;-84
2022/12/06 10:15:45;;;;;;;6.43;2.15;;;;;;;9.54;69.38;101554.41;4987772;28;20050;-85
2022/12/06 10:18:30;;;;;;;3.15;1.90;;;;;;;9.68;69.37;101567.47;4995178;28;20476;-87
2022/12/06 10:21:15;;;;;;;8.20;2.08;;;;;;;9.61;69.93;101560.94;4983086;28;20446;-84
2022/12/06 10:23:59;;;;;;;;;;;;;;;9.69;69.89;101571.84;4974971;28;20042;-86
2022/12/06 10:26:39;;;;;;;4.95;2.17;;;;;;;9.65;70.27;101567.75;4988837;28;19917;-85
2022/12/06 10:29:56;;;;;;;6.18;2.28;;;;;;;9.67;70.42;101549.69;5002206;28;20533;-85
2022/12/06 10:32:44;;;;;;;9.10;2.05;;;;;;;9.56;70.76;101549.75;4926025;28;20036;-86
2022/12/06 10:35:16;;;;;;;3.80;2.00;;;;;;;9.41;71.23;101533.13;4983385;28;20040;-88
2022/12/06 10:38:05;;;;;;;6.47;1.85;;;;;;;9.60;70.88;101559.22;4972074;28;20081;-86
2022/12/06 10:40:59;;;;;;;4.30;2.00;;;;;;;9.65;70.40;101549.81;4970662;28;20543;-86
2022/12/06 10:43:28;;;;;;;5.03;2.38;;;;;;;9.69;69.86;101534.25;4986541;28;20053;-87
2022/12/06 10:49:07;;;;;;;6.00;2.33;;;;;;;9.66;69.56;101543.44;4978913;28;20033;-88
2022/12/06 10:51:44;;;;;;;15.82;2.80;;;;;;;9.65;69.51;101519.41;4969223;28;20121;-86
2022/12/06 10:54:25;;;;;;;4.88;2.00;;;;;;;9.69;69.49;101532.44;4958822;28;20038;-85
2022/12/06 10:56:51;;;;;;;3.72;2.05;;;;;;;9.70;68.93;101507.28;4966519;28;20043;-86
2022/12/06 10:59:26;;;;;;;;;;;;;;;9.90;68.69;101529.72;4972426;28;20166;-83
2022/12/06 11:01:52;;;;;;;3.50;1.70;;;;;;;9.85;68.32;101537.31;4964008;28;20002;-86
2022/12/06 11:04:47;;;;;;;3.38;1.70;;;;;;;9.67;69.18;101522.81;4983357;28;20038;-86
2022/12/06 11:07:19;;;;;;;4.13;1.55;;;;;;;9.54;69.30;101501.56;4949576;28;20042;-86
2022/12/06 11:09:51;;;;;;;6.63;2.20;;;;;;;9.73;69.34;101522.28;4954623;28;20050;-85
2022/12/06 11:12:35;;;;;;;7.45;2.10;;;;;;;9.71;68.95;101513.50;4967974;28;20537;-85
2022/12/06 11:15:27;;;;;;;5.03;2.20;;;;;;;9.75;68.99;101525.69;4959235;28;20037;-85
2022/12/06 11:18:15;;;;;;;3.67;1.77;;;;;;;9.77;69.10;101518.34;4987688;28;20034;-84
2022/12/06 11:21:03;;;;;;;8.13;2.58;;;;;;;9.78;69.25;101513.81;4990540;28;20031;-84
2022/12/06 11:24:28;;;;;;;4.30;2.42;;;;;;;9.81;69.21;101511.72;4931155;28;20372;-86
2022/12/06 11:27:11;;;;;;;8.27;2.22;;;;;;;9.86;69.06;101501.41;4934264;29;20047;-87
2022/12/06 11:29:40;;;;;;;4.35;2.33;;;;;;;9.58;70.10;101502.16;4938537;29;20353;-86
2022/12/06 11:32:07;;;;;;;8.02;3.05;;;;;;;9.91;69.05;101509.06;4936160;29;20039;-84
2022/12/06 11:34:40;;;;;;;6.05;2.67;;;;;;;9.94;68.61;101506.94;4939270;29;20059;-85
2022/12/06 11:37:13;;;;;;;6.72;2.35;;;;;;;9.86;68.36;101474.56;4943566;28;20043;-84
2022/12/06 11:39:38;;;;;;;4.45;2.47;;;;;;;10.08;67.75;101484.22;4973603;28;20097;-86
2022/12/06 11:42:05;;;;;;;6.53;2.03;;;;;;;9.93;67.36;101467.66;4988381;28;20039;-83
2022/12/06 11:44:41;;;;;;;8.10;1.88;;;;;;;9.88;67.68;101485.16;4955816;28;20042;-85
2022/12/06 11:47:09;;;;;;;6.13;1.83;;;;;;;9.72;67.64;101461.50;5000827;28;20046;-84
2022/12/06 11:49:38;;;;;;;4.88;1.52;;;;;;;9.83;67.77;101480.22;4973056;28;20031;-84
2022/12/06 11:52:16;;;;;;;4.07;1.40;;;;;;;9.70;67.74;101460.78;4969366;28;20026;-85
2022/12/06 11:54:57;;;;;;;3.88;1.70;;;;;;;9.78;67.85;101482.44;4967284;28;20100;-85
2022/12/06 11:58:02;;;;;;;3.92;1.80;;;;;;;9.84;67.70;101481.91;4964195;28;20082;-87
2022/12/06 12:00:29;;;;;;;4.75;2.00;;;;;;;9.91;67.63;101482.22;4968613;28;20051;-88
2022/12/06 12:02:56;;;;;;;3.63;1.50;;;;;;;9.79;68.17;101478.78;4963466;28;20041;-84
2022/12/06 12:05:38;;;;;;;3.58;1.92;;;;;;;9.62;68.30;101465.97;4941775;28;20114;-85
2022/12/06 12:08:17;;;;;;;3.33;1.70;;;;;;;9.51;68.41;101443.63;4960048;28;20031;-86
2022/12/06 12:11:03;;;;;;;5.30;2.45;;;;;;;9.83;68.22;101479.34;4929136;28;20131;-87
2022/12/06 12:13:43;;;;;;;2.90;1.80;;;;;;;9.62;67.99;101436.44;4946787;28;20030;-90
2022/12/06 12:16:40;;;;;;;3.60;1.98;;;;;;;9.63;68.16;101446.22;4936143;28;20057;-89
2022/12/06 12:19:41;;;;;;;6.85;2.00;;;;;;;9.77;68.27;101470.00;4936120;28;20197;-87
2022/12/06 12:22:25;;;;;;;5.90;2.10;;;;;;;9.73;68.78;101479.31;4919937;28;20039;-88
2022/12/06 12:24:57;;;;;;;;;;;;;;;9.75;68.93;101474.66;4944712;28;20043;-87